createdAt,value
2019-05-09T00:00:33.610Z,6.90
2019-05-09T00:03:03.313Z,7.70
2019-05-09T00:05:29.776Z,7.03
2019-05-09T00:07:56.900Z,8.67
2019-05-09T00:10:37.784Z,6.50
2019-05-09T00:12:54.034Z,7.57
2019-05-09T00:15:24.226Z,7.87
2019-05-09T00:17:53.297Z,8.60
2019-05-09T00:20:25.459Z,8.50
2019-05-09T00:22:53.921Z,10.27
2019-05-09T00:25:23.498Z,11.70
2019-05-09T00:27:50.149Z,12.10
2019-05-09T00:30:19.044Z,8.60
2019-05-09T00:32:47.901Z,8.57
2019-05-09T00:35:16.745Z,8.37
2019-05-09T00:38:00.906Z,7.60
2019-05-09T00:40:27.965Z,7.60
2019-05-09T00:42:55.019Z,7.87
2019-05-09T00:45:43.782Z,8.73
2019-05-09T00:48:14.078Z,8.77
2019-05-09T00:50:43.605Z,10.27
2019-05-09T00:53:10.439Z,9.37
2019-05-09T00:55:37.519Z,9.80
2019-05-09T00:58:04.615Z,9.97
2019-05-09T01:00:33.326Z,9.43
2019-05-09T01:03:00.861Z,9.40
2019-05-09T01:05:27.924Z,8.33
2019-05-09T01:07:55.015Z,7.17
2019-05-09T01:10:23.717Z,8.13
2019-05-09T01:12:51.099Z,6.77
2019-05-09T01:15:19.062Z,7.90
2019-05-09T01:17:46.199Z,7.17
2019-05-09T01:20:14.716Z,7.47
2019-05-09T01:22:43.621Z,7.57
2019-05-09T01:25:12.863Z,7.83
2019-05-09T01:27:39.874Z,8.17
2019-05-09T01:30:07.544Z,8.67
2019-05-09T01:32:51.150Z,9.13
2019-05-09T01:35:18.234Z,10.20
2019-05-09T01:37:45.319Z,8.23
2019-05-09T01:40:13.305Z,10.77
2019-05-09T01:42:40.729Z,11.47
2019-05-09T01:45:07.909Z,10.43
2019-05-09T01:47:35.009Z,10.20
2019-05-09T01:50:03.934Z,10.47
2019-05-09T01:52:31.050Z,10.40
2019-05-09T01:54:58.119Z,11.40
2019-05-09T01:57:25.189Z,11.20
2019-05-09T01:59:53.216Z,11.30
2019-05-09T02:02:20.406Z,12.07
2019-05-09T02:04:47.964Z,12.60
2019-05-09T02:07:15.006Z,12.93
2019-05-09T02:09:43.407Z,12.67
2019-05-09T02:12:10.629Z,14.17
2019-05-09T02:14:56.419Z,14.83
2019-05-09T02:17:33.353Z,14.93
2019-05-09T02:20:00.035Z,14.57
2019-05-09T02:22:34.509Z,16.00
2019-05-09T02:30:06.113Z,16.47
2019-05-09T02:32:35.339Z,18.33
2019-05-09T02:35:06.078Z,19.17
2019-05-09T02:37:33.135Z,19.57
2019-05-09T02:40:00.220Z,20.50
2019-05-09T02:42:28.092Z,21.03
2019-05-09T02:44:55.495Z,20.93
2019-05-09T02:47:24.332Z,21.20
2019-05-09T02:49:51.557Z,21.27
2019-05-09T02:52:19.748Z,21.60
2019-05-09T02:54:50.021Z,22.17
2019-05-09T02:57:18.483Z,22.20
2019-05-09T02:59:49.284Z,23.10
2019-05-09T03:02:23.708Z,21.73
2019-05-09T03:04:52.031Z,22.07
2019-05-09T03:07:20.881Z,23.07
2019-05-09T03:09:48.256Z,24.37
2019-05-09T03:12:26.012Z,23.73
2019-05-09T03:14:44.412Z,24.83
2019-05-09T03:17:13.296Z,22.93
2019-05-09T03:19:40.365Z,22.53
2019-05-09T03:22:09.263Z,21.07
2019-05-09T03:24:39.180Z,16.73
2019-05-09T03:27:12.908Z,15.87
2019-05-09T03:29:44.607Z,15.67
2019-05-09T03:32:11.697Z,12.83
2019-05-09T03:34:38.775Z,9.90
2019-05-09T03:37:08.330Z,8.90
2019-05-09T03:39:34.847Z,7.80
2019-05-09T03:42:03.722Z,8.10
2019-05-09T03:44:30.772Z,8.40
2019-05-09T03:47:17.370Z,6.93
2019-05-09T03:49:47.648Z,7.10
2019-05-09T03:52:14.882Z,6.13
2019-05-09T03:55:00.137Z,6.60
2019-05-09T03:57:29.061Z,5.90
2019-05-09T03:59:57.266Z,5.50
2019-05-09T04:02:24.547Z,5.00
2019-05-09T04:04:51.791Z,4.23
2019-05-09T04:07:18.904Z,3.33
2019-05-09T04:09:47.956Z,3.07
2019-05-09T04:12:18.147Z,2.93
2019-05-09T04:14:47.560Z,3.20
2019-05-09T04:17:14.843Z,2.70
2019-05-09T04:19:41.916Z,3.77
2019-05-09T04:22:11.286Z,3.57
2019-05-09T04:24:41.071Z,4.20
2019-05-09T04:27:12.489Z,3.43
2019-05-09T04:29:39.574Z,3.40
2019-05-09T04:32:07.954Z,3.93
2019-05-09T04:34:35.302Z,4.97
2019-05-09T04:37:02.353Z,4.43
2019-05-09T04:39:30.097Z,5.20
2019-05-09T04:42:03.488Z,4.70
2019-05-09T04:44:30.996Z,5.00
2019-05-09T04:47:00.133Z,4.53
2019-05-09T04:49:29.634Z,4.40
2019-05-09T04:51:58.274Z,3.90
2019-05-09T04:54:25.449Z,3.20
2019-05-09T04:56:53.924Z,3.47
2019-05-09T04:59:21.121Z,2.90
2019-05-09T05:01:50.052Z,2.70
2019-05-09T05:04:18.357Z,2.50
2019-05-09T05:06:47.609Z,2.63
2019-05-09T05:09:14.438Z,2.63
2019-05-09T05:11:41.676Z,2.57
2019-05-09T05:14:10.562Z,3.20
2019-05-09T05:16:39.335Z,3.20
2019-05-09T05:19:07.546Z,2.97
2019-05-09T05:21:34.749Z,2.50
2019-05-09T05:24:09.460Z,3.30
2019-05-09T05:26:38.083Z,2.83
2019-05-09T05:29:05.295Z,2.80
2019-05-09T05:31:32.325Z,3.07
2019-05-09T05:34:04.598Z,2.47
2019-05-09T05:36:31.740Z,1.93
2019-05-09T05:38:58.836Z,2.17
2019-05-09T05:41:28.317Z,2.03
2019-05-09T05:43:55.168Z,1.90
2019-05-09T05:46:24.019Z,2.07
2019-05-09T05:48:52.289Z,1.73
2019-05-09T05:51:19.439Z,2.03
2019-05-09T05:53:48.110Z,1.80
2019-05-09T05:56:17.529Z,1.50
2019-05-09T05:58:44.429Z,1.63
2019-05-09T06:01:11.552Z,1.67
2019-05-09T06:03:40.433Z,1.40
2019-05-09T06:06:08.798Z,1.80
2019-05-09T06:08:38.072Z,2.20
2019-05-09T06:11:09.478Z,2.00
2019-05-09T06:13:34.476Z,1.87
2019-05-09T06:16:01.549Z,1.80
2019-05-09T06:18:28.858Z,1.53
2019-05-09T06:20:58.158Z,1.70
2019-05-09T06:23:24.919Z,1.80
2019-05-09T06:25:51.994Z,1.90
2019-05-09T06:28:19.084Z,1.30
2019-05-09T06:30:47.699Z,1.50
2019-05-09T06:33:14.984Z,1.57
2019-05-09T06:35:42.534Z,1.30
2019-05-09T06:38:09.700Z,1.37
2019-05-09T06:40:38.305Z,1.50
2019-05-09T06:43:19.383Z,1.40
2019-05-09T06:46:04.803Z,1.67
2019-05-09T06:48:32.108Z,1.90
2019-05-09T06:50:59.189Z,2.30
2019-05-09T06:53:27.238Z,2.07
2019-05-09T06:55:54.858Z,2.27
2019-05-09T06:58:31.937Z,1.90
2019-05-09T07:01:13.118Z,1.70
2019-05-09T07:03:48.190Z,1.50
2019-05-09T07:06:23.082Z,1.73
2019-05-09T07:08:54.699Z,1.70
2019-05-09T07:11:27.421Z,1.93
2019-05-09T07:13:54.158Z,2.00
2019-05-09T07:16:21.251Z,2.40
2019-05-09T07:18:48.596Z,2.40
2019-05-09T07:21:15.687Z,2.33
2019-05-09T07:23:42.782Z,2.60
2019-05-09T07:26:14.427Z,2.40
2019-05-09T07:28:42.290Z,1.30
2019-05-09T07:31:11.767Z,1.10
2019-05-09T07:33:47.847Z,1.10
2019-05-09T07:36:15.187Z,0.93
2019-05-09T07:38:42.256Z,1.10
2019-05-09T07:41:09.776Z,1.17
2019-05-09T07:43:38.471Z,1.20
2019-05-09T07:46:08.886Z,1.50
2019-05-09T07:51:11.972Z,1.00
2019-05-09T07:53:39.106Z,1.10
2019-05-09T07:56:07.920Z,1.00
2019-05-09T07:58:37.525Z,0.97
2019-05-09T08:01:04.345Z,0.80
2019-05-09T08:03:31.432Z,0.80
2019-05-09T08:05:58.507Z,0.90
2019-05-09T08:08:27.825Z,1.10
2019-05-09T08:10:54.560Z,0.93
2019-05-09T08:13:22.290Z,0.80
2019-05-09T08:15:49.356Z,1.07
2019-05-09T08:18:17.462Z,0.80
2019-05-09T08:20:44.876Z,0.80
2019-05-09T08:23:11.926Z,0.70
2019-05-09T08:25:39.283Z,0.80
2019-05-09T08:28:08.797Z,0.83
2019-05-09T08:30:36.419Z,0.60
2019-05-09T08:33:08.224Z,0.70
2019-05-09T08:35:38.114Z,0.80
2019-05-09T08:38:04.656Z,0.83
2019-05-09T08:40:31.766Z,0.60
2019-05-09T08:42:59.205Z,0.70
2019-05-09T08:45:30.812Z,0.60
2019-05-09T08:47:57.826Z,0.80
2019-05-09T08:50:42.087Z,0.67
2019-05-09T08:53:09.205Z,0.80
2019-05-09T08:55:38.345Z,0.63
2019-05-09T08:58:07.785Z,1.00
2019-05-09T09:00:34.650Z,0.90
2019-05-09T09:03:01.689Z,1.10
2019-05-09T09:05:29.020Z,0.90
2019-05-09T09:07:57.786Z,1.20
2019-05-09T09:10:25.151Z,1.00
2019-05-09T09:12:52.189Z,1.00
2019-05-09T09:15:19.281Z,1.30
2019-05-09T09:17:48.880Z,1.10
2019-05-09T09:20:17.989Z,1.30
2019-05-09T09:22:44.455Z,1.30
2019-05-09T09:25:11.535Z,1.30
2019-05-09T09:27:38.597Z,1.57
2019-05-09T09:30:17.858Z,1.40
2019-05-09T09:32:35.103Z,1.20
2019-05-09T09:35:03.286Z,1.40
2019-05-09T09:37:45.046Z,1.37
2019-05-09T09:40:00.889Z,1.27
2019-05-09T09:42:28.330Z,1.10
2019-05-09T09:44:58.320Z,1.23
2019-05-09T09:47:24.963Z,1.23
2019-05-09T09:49:55.199Z,1.30
2019-05-09T09:52:21.081Z,1.67
2019-05-09T09:54:48.335Z,1.50
2019-05-09T09:57:18.976Z,2.03
2019-05-09T09:59:48.397Z,1.77
2019-05-09T10:02:18.198Z,1.47
2019-05-09T10:04:48.034Z,1.57
2019-05-09T10:07:15.120Z,1.30
2019-05-09T10:09:42.540Z,1.00
2019-05-09T10:12:09.801Z,1.10
2019-05-09T10:14:41.586Z,1.10
2019-05-09T10:17:10.576Z,1.17
2019-05-09T10:19:48.305Z,1.20
2019-05-09T10:22:23.325Z,1.47
2019-05-09T10:24:47.864Z,1.10
2019-05-09T10:27:18.481Z,1.20
2019-05-09T10:29:47.961Z,1.00
2019-05-09T10:32:18.146Z,1.33
2019-05-09T10:34:45.100Z,1.50
2019-05-09T10:37:12.244Z,1.40
2019-05-09T10:39:39.526Z,1.17
2019-05-09T10:42:20.597Z,1.30
2019-05-09T10:44:49.596Z,1.17
2019-05-09T10:47:24.011Z,1.07
2019-05-09T10:49:51.086Z,1.30
2019-05-09T10:52:18.433Z,1.40
2019-05-09T10:54:45.583Z,1.30
2019-05-09T10:57:12.799Z,1.17
2019-05-09T10:59:40.161Z,1.30
2019-05-09T11:02:09.510Z,1.33
2019-05-09T11:04:37.968Z,1.40
2019-05-09T11:07:07.867Z,1.17
2019-05-09T11:09:34.529Z,1.20
2019-05-09T11:12:01.567Z,1.40
2019-05-09T11:14:36.510Z,1.03
2019-05-09T11:17:07.920Z,1.00
2019-05-09T11:19:28.947Z,1.10
2019-05-09T11:21:58.495Z,1.20
2019-05-09T11:24:42.979Z,1.10
2019-05-09T11:26:59.889Z,1.30
2019-05-09T11:29:28.126Z,1.40
2019-05-09T11:31:55.463Z,1.30
2019-05-09T11:34:22.565Z,1.13
2019-05-09T11:36:50.065Z,1.00
2019-05-09T11:39:35.209Z,1.30
2019-05-09T11:41:48.823Z,1.20
2019-05-09T11:44:18.291Z,1.20
2019-05-09T11:46:44.819Z,0.90
2019-05-09T11:49:12.089Z,1.03
2019-05-09T11:51:39.194Z,1.10
2019-05-09T11:54:08.895Z,1.20
2019-05-09T11:59:02.906Z,0.80
2019-05-09T12:01:29.988Z,1.00
2019-05-09T12:03:57.754Z,1.00
2019-05-09T12:06:25.369Z,0.80
2019-05-09T12:08:52.449Z,0.90
2019-05-09T12:11:19.535Z,0.93
2019-05-09T12:13:48.606Z,0.80
2019-05-09T12:16:18.115Z,0.90
2019-05-09T12:18:44.664Z,1.00
2019-05-09T12:21:19.096Z,1.20
2019-05-09T12:23:48.801Z,1.20
2019-05-09T12:26:18.046Z,1.00
2019-05-09T12:28:44.795Z,1.00
2019-05-09T12:31:11.899Z,0.80
2019-05-09T12:33:39.169Z,1.03
2019-05-09T12:36:09.280Z,0.90
2019-05-09T12:38:38.798Z,0.90
2019-05-09T12:41:07.712Z,0.90
2019-05-09T12:43:34.015Z,1.00
2019-05-09T12:46:01.091Z,1.00
2019-05-09T12:48:28.185Z,1.10
2019-05-09T12:50:55.343Z,1.00
2019-05-09T12:53:22.379Z,1.00
2019-05-09T12:55:59.180Z,0.90
2019-05-09T12:58:28.075Z,0.90
2019-05-09T13:00:58.596Z,1.07
2019-05-09T13:03:27.820Z,0.83
2019-05-09T13:05:57.337Z,0.80
2019-05-09T13:08:24.385Z,1.00
2019-05-09T13:10:51.530Z,1.30
2019-05-09T13:13:19.751Z,1.10
2019-05-09T13:15:49.054Z,1.10
2019-05-09T13:18:24.541Z,0.90
2019-05-09T13:20:45.125Z,0.90
2019-05-09T13:23:12.237Z,0.60
2019-05-09T13:25:39.340Z,1.30
2019-05-09T13:28:08.274Z,1.03
2019-05-09T13:30:37.961Z,1.00
2019-05-09T13:33:10.104Z,1.00
2019-05-09T13:35:34.780Z,4.97
2019-05-09T13:38:01.939Z,1.40
2019-05-09T13:40:29.210Z,2.17
2019-05-09T13:42:58.537Z,6.60
2019-05-09T13:45:25.369Z,2.93
2019-05-09T13:47:52.512Z,1.10
2019-05-09T13:50:19.585Z,1.00
2019-05-09T13:52:49.173Z,1.07
2019-05-09T13:55:17.796Z,1.00
2019-05-09T13:57:45.123Z,1.20
2019-05-09T14:00:12.585Z,1.30
2019-05-09T14:02:39.658Z,0.93
2019-05-09T14:05:08.994Z,1.30
2019-05-09T14:07:37.713Z,5.17
2019-05-09T14:10:09.036Z,0.93
2019-05-09T14:12:37.972Z,3.10
2019-05-09T14:15:08.441Z,0.97
2019-05-09T14:17:46.002Z,1.17
2019-05-09T14:20:08.721Z,1.03
2019-05-09T14:22:34.997Z,1.10
2019-05-09T14:25:02.939Z,0.77
2019-05-09T14:27:30.407Z,1.10
2019-05-09T14:29:59.365Z,1.23
2019-05-09T14:32:26.873Z,1.30
2019-05-09T14:34:54.063Z,8.03
2019-05-09T14:37:21.311Z,4.17
2019-05-09T14:39:58.026Z,1.00
2019-05-09T14:42:19.065Z,4.10
2019-05-09T14:44:47.976Z,3.67
2019-05-09T14:47:17.452Z,1.03
2019-05-09T14:49:44.749Z,1.07
2019-05-09T14:52:12.661Z,1.20
2019-05-09T14:54:39.736Z,1.30
2019-05-09T14:57:09.461Z,1.40
2019-05-09T14:59:38.209Z,1.80
2019-05-09T15:02:05.228Z,2.60
2019-05-09T15:04:32.903Z,1.30
2019-05-09T15:06:59.964Z,1.37
2019-05-09T15:09:28.462Z,3.17
2019-05-09T15:11:58.264Z,4.97
2019-05-09T15:14:24.682Z,12.80
2019-05-09T15:16:54.287Z,3.20
2019-05-09T15:19:21.361Z,2.60
2019-05-09T15:21:48.992Z,27.37
2019-05-09T15:24:19.606Z,1.30
2019-05-09T15:26:47.943Z,1.97
2019-05-09T15:29:15.850Z,2.83
2019-05-09T15:31:44.798Z,0.93
2019-05-09T15:34:12.313Z,1.20
2019-05-09T16:07:20.546Z,5.43
2019-05-09T16:09:48.288Z,1.80
2019-05-09T16:12:15.481Z,22.10
2019-05-09T16:14:42.535Z,55.57
2019-05-09T16:17:09.602Z,22.83
2019-05-09T16:19:37.809Z,34.17
2019-05-09T16:22:05.086Z,18.37
2019-05-09T16:24:32.126Z,13.53
2019-05-09T16:26:59.685Z,2.57
2019-05-09T16:29:28.514Z,3.20
2019-05-09T16:31:57.908Z,2.03
2019-05-09T16:34:28.203Z,1.77
2019-05-09T16:36:55.130Z,1.90
2019-05-09T16:39:22.221Z,1.60
2019-05-09T16:41:49.875Z,1.40
2019-05-09T16:44:18.283Z,1.73
2019-05-09T16:46:48.175Z,5.93
2019-05-09T16:49:17.591Z,1.50
2019-05-09T16:51:43.972Z,2.53
2019-05-09T16:54:11.029Z,1.20
2019-05-09T16:56:38.400Z,1.40
2019-05-09T16:59:08.077Z,1.30
2019-05-09T17:01:39.455Z,1.60
2019-05-09T17:04:08.189Z,1.50
2019-05-09T17:06:37.902Z,1.50
2019-05-09T17:09:04.847Z,1.70
2019-05-09T17:11:31.913Z,1.53
2019-05-09T17:13:59.019Z,3.90
2019-05-09T17:16:28.280Z,1.80
2019-05-09T17:18:55.068Z,1.60
2019-05-09T17:21:38.999Z,10.70
2019-05-09T17:24:14.113Z,3.67
2019-05-09T17:26:41.661Z,4.93
2019-05-09T17:29:08.723Z,17.73
2019-05-09T17:31:38.295Z,8.80
2019-05-09T17:34:05.343Z,1.40
2019-05-09T17:36:32.424Z,1.40
2019-05-09T17:38:59.503Z,1.70
2019-05-09T17:41:28.426Z,5.67
2019-05-09T17:43:58.108Z,2.20
2019-05-09T17:46:27.389Z,2.70
2019-05-09T17:48:54.344Z,2.67
2019-05-09T17:51:32.570Z,6.40
2019-05-09T17:53:52.277Z,29.40
2019-05-09T17:56:19.488Z,4.80
2019-05-09T17:58:48.602Z,4.73
2019-05-09T18:01:18.036Z,3.20
2019-05-09T18:03:48.049Z,2.40
2019-05-09T18:06:14.889Z,1.90
2019-05-09T18:08:42.121Z,1.80
2019-05-09T18:11:12.743Z,1.80
2019-05-09T18:13:38.685Z,31.40
2019-05-09T18:16:06.008Z,10.57
2019-05-09T18:18:34.323Z,4.43
2019-05-09T18:21:01.383Z,2.50
2019-05-09T18:23:29.758Z,3.67
2019-05-09T18:25:58.536Z,13.13
2019-05-09T18:28:25.904Z,4.00
2019-05-09T18:30:52.946Z,2.97
2019-05-09T18:33:23.240Z,3.87
2019-05-09T18:35:50.334Z,4.10
2019-05-09T18:38:29.361Z,3.20
2019-05-09T18:40:57.949Z,2.40
2019-05-09T18:43:27.497Z,4.10
2019-05-09T18:45:54.372Z,1.70
2019-05-09T18:48:21.428Z,1.80
2019-05-09T18:50:48.706Z,1.77
2019-05-09T18:53:15.761Z,1.20
2019-05-09T18:55:42.818Z,1.60
2019-05-09T18:58:10.980Z,1.47
2019-05-09T19:00:38.342Z,2.40
2019-05-09T19:03:05.395Z,10.13
2019-05-09T19:05:32.463Z,1.77
2019-05-09T19:07:59.485Z,1.70
2019-05-09T19:10:27.162Z,1.30
2019-05-09T19:12:54.641Z,8.23
2019-05-09T19:18:11.829Z,1.50
2019-05-09T19:20:52.883Z,1.60
2019-05-09T19:23:20.059Z,2.43
2019-05-09T19:25:47.136Z,1.17
2019-05-09T19:28:14.300Z,1.93
2019-05-09T19:30:41.414Z,1.70
2019-05-09T19:33:08.644Z,1.70
2019-05-09T19:35:37.162Z,1.70
2019-05-09T19:38:04.381Z,1.60
2019-05-09T19:40:32.515Z,1.97
2019-05-09T19:42:59.705Z,2.57
2019-05-09T19:45:40.345Z,1.87
2019-05-09T19:48:07.505Z,2.73
2019-05-09T19:50:34.766Z,2.40
2019-05-09T19:53:02.022Z,2.07
2019-05-09T19:55:29.161Z,1.43
2019-05-09T19:57:57.362Z,1.30
2019-05-09T20:00:24.692Z,3.30
2019-05-09T20:02:52.924Z,2.83
2019-05-09T20:05:20.324Z,3.70
2019-05-09T20:07:47.471Z,2.30
2019-05-09T20:10:16.892Z,2.00
2019-05-09T20:13:03.598Z,2.00
2019-05-09T20:15:30.725Z,1.23
2019-05-09T20:17:57.875Z,1.53
2019-05-09T20:20:26.173Z,1.60
2019-05-09T20:22:53.593Z,1.57
2019-05-09T20:25:22.192Z,1.50
2019-05-09T20:27:49.336Z,1.20
2019-05-09T20:30:16.595Z,1.40
2019-05-09T20:32:43.776Z,1.97
2019-05-09T20:35:10.918Z,1.77
2019-05-09T20:37:37.936Z,2.20
2019-05-09T20:40:07.227Z,1.43
2019-05-09T20:42:34.293Z,1.80
2019-05-09T20:45:01.532Z,1.47
2019-05-09T20:47:28.607Z,1.90
2019-05-09T20:49:55.695Z,3.17
2019-05-09T20:52:22.876Z,2.20
2019-05-09T20:54:50.127Z,1.60
2019-05-09T20:57:17.272Z,2.27
2019-05-09T21:02:19.866Z,1.87
2019-05-09T21:04:47.011Z,1.60
2019-05-09T21:07:14.156Z,1.63
2019-05-09T21:09:41.267Z,1.70
2019-05-09T21:12:11.077Z,2.40
2019-05-09T21:14:37.553Z,3.07
2019-05-09T21:17:04.707Z,2.00
2019-05-09T21:19:31.889Z,2.07
2019-05-09T21:21:59.413Z,1.80
2019-05-09T21:24:26.558Z,1.70
2019-05-09T21:26:53.715Z,1.80
2019-05-09T21:29:21.053Z,1.70
2019-05-09T21:31:48.082Z,1.80
2019-05-09T21:34:15.443Z,6.13
2019-05-09T21:36:43.643Z,5.37
2019-05-09T21:39:10.715Z,2.87
2019-05-09T21:41:37.754Z,2.77
2019-05-09T21:44:04.828Z,3.53
2019-05-09T21:46:31.887Z,2.33
2019-05-09T21:48:58.980Z,5.10
2019-05-09T21:51:26.057Z,2.40
2019-05-09T21:53:53.123Z,2.03
2019-05-09T21:56:20.412Z,2.00
2019-05-09T21:58:47.503Z,1.97
2019-05-09T22:01:17.895Z,2.33
2019-05-09T22:03:46.335Z,2.40
2019-05-09T22:06:13.745Z,2.03
2019-05-09T22:08:40.816Z,2.57
2019-05-09T22:11:07.896Z,4.60
2019-05-09T22:13:36.861Z,3.37
2019-05-09T22:16:06.105Z,2.70
2019-05-09T22:18:34.333Z,2.30
2019-05-09T22:21:01.626Z,2.37
2019-05-09T22:23:28.776Z,2.30
2019-05-09T22:25:55.935Z,2.47
2019-05-09T22:28:23.282Z,2.70
2019-05-09T22:30:50.368Z,2.50
2019-05-09T22:33:17.570Z,2.60
2019-05-09T22:35:44.725Z,3.83
2019-05-09T22:38:11.876Z,5.43
2019-05-09T22:40:38.988Z,3.40
2019-05-09T22:43:06.065Z,3.20
2019-05-09T22:45:33.424Z,2.87
2019-05-09T22:48:00.576Z,2.80
2019-05-09T22:50:27.985Z,3.10
2019-05-09T22:52:55.170Z,3.80
2019-05-09T22:55:22.250Z,2.80
2019-05-09T22:57:49.480Z,3.80
2019-05-09T23:00:16.923Z,4.57
2019-05-09T23:02:44.079Z,2.83
2019-05-09T23:05:11.553Z,2.90
2019-05-09T23:10:06.223Z,3.03
2019-05-09T23:12:33.393Z,4.00
2019-05-09T23:15:00.637Z,3.77
2019-05-09T23:17:28.303Z,3.17
2019-05-09T23:19:55.554Z,3.13
2019-05-09T23:22:24.641Z,3.10
2019-05-09T23:24:51.792Z,3.67
2019-05-09T23:27:19.796Z,3.23
2019-05-09T23:29:46.902Z,3.23
2019-05-09T23:32:18.685Z,3.63
2019-05-09T23:34:45.813Z,4.20
2019-05-09T23:37:12.962Z,4.33
2019-05-09T23:39:44.761Z,4.33
2019-05-09T23:42:12.071Z,3.13
2019-05-09T23:44:39.130Z,2.90
2019-05-09T23:47:06.364Z,3.00
2019-05-09T23:49:33.524Z,3.60
2019-05-09T23:52:00.665Z,3.00
2019-05-09T23:54:48.712Z,3.93
2019-05-09T23:57:34.287Z,3.00
